| time (UTC) | temp F | wind direction | speed MPH | gust MPH | rain 1hr in | rain 24hr in | rain mn in | humidity % | barometer mb |
| 20260507162242 | 48 | 0.0 | 1.0 | 0.01 | 0.01 | 0.01 | 81 | 1011.4 | |
| 20260507161239 | 48 | 90 | 0.0 | 2.0 | 0.01 | 0.01 | 0.01 | 80 | 1011.5 |
| 20260507160236 | 48 | 90 | 0.0 | 2.0 | 0.01 | 0.01 | 0.01 | 80 | 1011.5 |
| 20260507155232 | 49 | 122 | 0.0 | 2.0 | 0.01 | 0.01 | 0.01 | 79 | 1011.4 |
| 20260507154259 | 49 | 135 | 0.0 | 2.0 | 0.01 | 0.01 | 0.01 | 77 | 1011.2 |
| 20260507153256 | 49 | 0.0 | 0.0 | 0.01 | 0.01 | 0.01 | 77 | 1011.1 | |
| 20260507152253 | 49 | 0.0 | 0.0 | 0.00 | 0.00 | 0.00 | 76 | 1011.0 | |
| 20260507151250 | 49 | 0 | 0.0 | 2.0 | 0.00 | 0.00 | 0.00 | 76 | 1011.1 |
| 20260507150246 | 49 | 23 | 0.0 | 2.0 | 0.00 | 0.00 | 0.00 | 76 | 1010.9 |
| 20260507145243 | 49 | 0 | 1.0 | 2.0 | 0.00 | 0.00 | 0.00 | 75 | 1010.9 |
| 20260507144240 | 49 | 330 | 2.0 | 4.0 | 0.00 | 0.00 | 0.00 | 75 | 1010.9 |
| 20260507143238 | 49 | 0 | 0.0 | 2.0 | 0.00 | 0.00 | 0.00 | 74 | 1010.8 |
| 20260507142233 | 50 | 334 | 2.0 | 4.0 | 0.00 | 0.00 | 0.00 | 73 | 1010.8 |
| 20260507141230 | 50 | 129 | 2.0 | 3.0 | 0.00 | 0.00 | 0.00 | 74 | 1010.7 |
| 20260507140227 | 50 | 53 | 1.0 | 3.0 | 0.00 | 0.00 | 0.00 | 73 | 1010.6 |
| 20260507135223 | 50 | 315 | 2.0 | 4.0 | 0.00 | 0.00 | 0.00 | 73 | 1010.6 |
| 20260507134220 | 50 | 10 | 2.0 | 5.0 | 0.00 | 0.00 | 0.00 | 72 | 1010.6 |
| 20260507133217 | 50 | 344 | 2.0 | 4.0 | 0.00 | 0.00 | 0.00 | 73 | 1010.5 |
| 20260507132314 | 49 | 55 | 1.0 | 3.0 | 0.00 | 0.00 | 0.00 | 75 | 1010.5 |
| 20260507131311 | 48 | 337 | 4.0 | 9.0 | 0.00 | 0.00 | 0.00 | 74 | 1010.5 |
| 20260507130307 | 48 | 349 | 3.0 | 8.0 | 0.00 | 0.00 | 0.00 | 74 | 1010.4 |
| 20260507125306 | 48 | 351 | 5.0 | 9.0 | 0.00 | 0.00 | 0.00 | 73 | 1010.3 |
| 20260507124301 | 49 | 16 | 4.0 | 8.0 | 0.00 | 0.00 | 0.00 | 72 | 1010.2 |
| 20260507123258 | 49 | 0 | 3.0 | 4.0 | 0.00 | 0.00 | 0.00 | 72 | 1010.1 |
| 20260507122254 | 49 | 13 | 3.0 | 7.0 | 0.00 | 0.00 | 0.00 | 72 | 1009.9 |
| 20260507121251 | 49 | 6 | 3.0 | 6.0 | 0.00 | 0.00 | 0.00 | 73 | 1010.0 |
| 20260507120248 | 49 | 337 | 4.0 | 9.0 | 0.00 | 0.00 | 0.00 | 73 | 1009.9 |
| 20260507115245 | 49 | 344 | 4.0 | 6.0 | 0.00 | 0.00 | 0.00 | 73 | 1010.0 |
| 20260507114241 | 49 | 300 | 2.0 | 3.0 | 0.00 | 0.00 | 0.00 | 73 | 1009.8 |
| 20260507113237 | 49 | 353 | 2.0 | 8.0 | 0.00 | 0.00 | 0.00 | 74 | 1009.7 |
| 20260507112233 | 48 | 315 | 3.0 | 5.0 | 0.00 | 0.00 | 0.00 | 74 | 1009.6 |
| 20260507111259 | 48 | 22 | 3.0 | 8.0 | 0.00 | 0.00 | 0.00 | 74 | 1009.6 |
| 20260507110255 | 48 | 39 | 2.0 | 4.0 | 0.00 | 0.00 | 0.00 | 75 | 1009.6 |
| 20260507105251 | 48 | 1 | 3.0 | 6.0 | 0.00 | 0.00 | 0.00 | 75 | 1009.7 |
| 20260507104248 | 48 | 336 | 4.0 | 8.0 | 0.00 | 0.00 | 0.00 | 74 | 1009.5 |
| 20260507103245 | 48 | 313 | 2.0 | 4.0 | 0.00 | 0.00 | 0.00 | 74 | 1009.4 |
| 20260507102240 | 49 | 311 | 3.0 | 7.0 | 0.00 | 0.00 | 0.00 | 73 | 1009.3 |
| 20260507101236 | 49 | 339 | 3.0 | 4.0 | 0.00 | 0.00 | 0.00 | 74 | 1009.2 |
| 20260507100232 | 48 | 80 | 2.0 | 4.0 | 0.00 | 0.00 | 0.00 | 74 | 1009.1 |
| 20260507095228 | 48 | 15 | 3.0 | 8.0 | 0.00 | 0.00 | 0.00 | 74 | 1009.0 |
| 20260507094224 | 48 | 0 | 2.0 | 4.0 | 0.00 | 0.00 | 0.00 | 73 | 1009.0 |
| 20260507093220 | 48 | 0 | 2.0 | 3.0 | 0.00 | 0.00 | 0.00 | 74 | 1008.8 |
| 20260507092218 | 48 | 55 | 2.0 | 5.0 | 0.00 | 0.00 | 0.00 | 75 | 1008.7 |
| 20260507091314 | 48 | 31 | 3.0 | 6.0 | 0.00 | 0.00 | 0.00 | 74 | 1008.6 |
| 20260507090311 | 47 | 340 | 4.0 | 6.0 | 0.00 | 0.01 | 0.00 | 75 | 1008.5 |
| 20260507085308 | 47 | 1 | 5.0 | 9.0 | 0.00 | 0.02 | 0.00 | 76 | 1008.4 |
| 20260507084305 | 47 | 0 | 3.0 | 9.0 | 0.00 | 0.02 | 0.00 | 76 | 1008.3 |
| 20260507083301 | 47 | 351 | 4.0 | 8.0 | 0.00 | 0.02 | 0.00 | 77 | 1008.2 |
| 20260507082257 | 47 | 347 | 4.0 | 7.0 | 0.00 | 0.02 | 0.00 | 78 | 1008.1 |
| 20260507081253 | 47 | 347 | 3.0 | 7.0 | 0.00 | 0.04 | 0.00 | 78 | 1007.8 |
| 20260507080249 | 47 | 339 | 4.0 | 8.0 | 0.00 | 0.04 | 0.00 | 79 | 1007.7 |
| 20260507075246 | 47 | 345 | 2.0 | 5.0 | 0.00 | 0.04 | 0.00 | 80 | 1007.7 |
| 20260507074242 | 47 | 354 | 4.0 | 7.0 | 0.00 | 0.05 | 0.00 | 80 | 1007.6 |
| 20260507073238 | 46 | 0 | 2.0 | 5.0 | 0.00 | 0.05 | 0.00 | 80 | 1007.5 |
| 20260507072234 | 46 | 350 | 3.0 | 6.0 | 0.00 | 0.05 | 0.00 | 80 | 1007.4 |
| 20260507071231 | 46 | 9 | 3.0 | 7.0 | 0.00 | 0.06 | 0.00 | 80 | 1007.4 |
| 20260507070228 | 46 | 345 | 4.0 | 9.0 | 0.00 | 0.07 | 0.00 | 80 | 1007.4 |
| 20260507065224 | 46 | 349 | 4.0 | 10.0 | 0.00 | 0.07 | 0.00 | 80 | 1007.3 |
| 20260507064221 | 46 | 302 | 3.0 | 7.0 | 0.00 | 0.08 | 0.00 | 80 | 1007.2 |
| 20260507063218 | 46 | 342 | 3.0 | 8.0 | 0.00 | 0.09 | 0.00 | 80 | 1007.1 |
| 20260507062315 | 46 | 0 | 2.0 | 7.0 | 0.00 | 0.11 | 0.00 | 80 | 1007.1 |
| 20260507061311 | 46 | 337 | 4.0 | 11.0 | 0.00 | 0.12 | 0.00 | 80 | 1006.8 |
| 20260507060308 | 46 | 10 | 3.0 | 6.0 | 0.00 | 0.14 | 0.00 | 80 | 1006.7 |
| 20260507055306 | 46 | 356 | 2.0 | 5.0 | 0.00 | 0.17 | 0.00 | 80 | 1006.5 |
| 20260507054302 | 46 | 326 | 2.0 | 4.0 | 0.00 | 0.18 | 0.00 | 80 | 1006.4 |
| 20260507053258 | 46 | 339 | 3.0 | 4.0 | 0.00 | 0.19 | 0.00 | 80 | 1006.4 |
| 20260507052255 | 46 | 90 | 1.0 | 4.0 | 0.00 | 0.20 | 0.00 | 81 | 1006.3 |
| 20260507051252 | 46 | 39 | 3.0 | 5.0 | 0.00 | 0.21 | 0.00 | 81 | 1006.3 |
| 20260507050249 | 45 | 335 | 3.0 | 5.0 | 0.00 | 0.22 | 0.00 | 87 | 1006.2 |
| 20260507045246 | 45 | 334 | 2.0 | 4.0 | 0.00 | 0.24 | 0.00 | 88 | 1006.2 |
| 20260507044242 | 45 | 316 | 3.0 | 6.0 | 0.00 | 0.26 | 0.00 | 88 | 1006.0 |
| 20260507043239 | 45 | 0.0 | 1.0 | 0.00 | 0.26 | 0.00 | 88 | 1006.0 | |
| 20260507042236 | 45 | 0 | 2.0 | 4.0 | 0.00 | 0.27 | 0.00 | 88 | 1006.0 |
| 20260507041233 | 45 | 344 | 3.0 | 7.0 | 0.00 | 0.28 | 0.00 | 88 | 1005.9 |
| 20260507040230 | 45 | 350 | 3.0 | 6.0 | 0.00 | 0.28 | 0.00 | 88 | 1005.7 |
| 20260507035227 | 45 | 350 | 2.0 | 6.0 | 0.00 | 0.28 | 0.00 | 88 | 1005.7 |
| 20260507034223 | 45 | 27 | 1.0 | 3.0 | 0.00 | 0.30 | 0.00 | 88 | 1005.7 |
| 20260507033220 | 45 | 353 | 3.0 | 8.0 | 0.00 | 0.31 | 0.00 | 88 | 1005.4 |
| 20260507032217 | 45 | 0 | 3.0 | 5.0 | 0.00 | 0.31 | 0.00 | 88 | 1005.5 |
| 20260507031314 | 45 | 17 | 2.0 | 4.0 | 0.00 | 0.32 | 0.00 | 88 | 1005.5 |
| 20260507030311 | 45 | 354 | 4.0 | 8.0 | 0.00 | 0.33 | 0.00 | 88 | 1005.5 |
| 20260507025308 | 45 | 343 | 4.0 | 8.0 | 0.00 | 0.33 | 0.00 | 88 | 1005.4 |
| 20260507024304 | 45 | 16 | 2.0 | 5.0 | 0.00 | 0.34 | 0.00 | 87 | 1005.2 |
| 20260507023300 | 45 | 22 | 1.0 | 5.0 | 0.00 | 0.35 | 0.00 | 87 | 1005.2 |
| 20260507022257 | 45 | 19 | 1.0 | 6.0 | 0.00 | 0.37 | 0.00 | 87 | 1005.2 |
| 20260507021252 | 45 | 0 | 0.0 | 4.0 | 0.00 | 0.39 | 0.00 | 87 | 1005.1 |
| 20260507020249 | 45 | 43 | 2.0 | 4.0 | 0.00 | 0.40 | 0.00 | 87 | 1005.1 |
| 20260507015245 | 45 | 307 | 2.0 | 4.0 | 0.00 | 0.41 | 0.00 | 87 | 1005.1 |
| 20260507014241 | 45 | 347 | 3.0 | 6.0 | 0.00 | 0.43 | 0.00 | 86 | 1004.8 |
| 20260507013238 | 45 | 327 | 3.0 | 6.0 | 0.00 | 0.43 | 0.00 | 86 | 1004.8 |
| 20260507012234 | 45 | 333 | 4.0 | 7.0 | 0.00 | 0.45 | 0.00 | 86 | 1004.8 |
| 20260507011230 | 45 | 336 | 4.0 | 9.0 | 0.00 | 0.46 | 0.00 | 86 | 1004.7 |
| 20260507010227 | 45 | 329 | 5.0 | 8.0 | 0.00 | 0.46 | 0.00 | 86 | 1004.7 |
| 20260507005224 | 45 | 340 | 4.0 | 7.0 | 0.00 | 0.47 | 0.00 | 82 | 1004.7 |
| 20260507004221 | 46 | 322 | 4.0 | 8.0 | 0.00 | 0.50 | 0.00 | 82 | 1004.5 |
| 20260507003217 | 46 | 11 | 3.0 | 5.0 | 0.00 | 0.52 | 0.00 | 81 | 1004.2 |
| 20260507002315 | 47 | 0 | 4.0 | 9.0 | 0.00 | 0.53 | 0.00 | 81 | 1004.2 |
| 20260507001311 | 48 | 24 | 4.0 | 8.0 | 0.00 | 0.54 | 0.00 | 81 | 1004.0 |
| 20260507000308 | 48 | 323 | 5.0 | 9.0 | 0.00 | 0.56 | 0.00 | 81 | 1003.9 |
| 20260506235306 | 49 | 333 | 3.0 | 8.0 | 0.00 | 0.57 | 0.00 | 81 | 1003.9 |
| 20260506234301 | 49 | 340 | 3.0 | 6.0 | 0.00 | 0.57 | 0.00 | 80 | 1003.8 |
| 20260506233258 | 49 | 158 | 3.0 | 5.0 | 0.00 | 0.58 | 0.00 | 80 | 1003.8 |
| 20260506232255 | 50 | 295 | 5.0 | 11.0 | 0.00 | 0.58 | 0.00 | 80 | 1003.8 |
| 20260506231252 | 50 | 314 | 4.0 | 9.0 | 0.00 | 0.58 | 0.00 | 80 | 1003.8 |
| 20260506230248 | 50 | 352 | 3.0 | 7.0 | 0.00 | 0.58 | 0.00 | 80 | 1003.7 |
| 20260506225245 | 50 | 339 | 4.0 | 8.0 | 0.00 | 0.58 | 0.00 | 80 | 1003.7 |
| 20260506224242 | 51 | 11 | 3.0 | 5.0 | 0.00 | 0.59 | 0.00 | 80 | 1003.6 |
| 20260506223239 | 51 | 329 | 3.0 | 7.0 | 0.00 | 0.59 | 0.00 | 80 | 1003.6 |
| 20260506222236 | 51 | 328 | 2.0 | 4.0 | 0.00 | 0.59 | 0.00 | 80 | 1003.6 |
| 20260506221232 | 51 | 333 | 3.0 | 6.0 | 0.00 | 0.59 | 0.00 | 80 | 1003.5 |
| 20260506220229 | 51 | 315 | 4.0 | 7.0 | 0.00 | 0.59 | 0.00 | 81 | 1003.5 |
| 20260506215226 | 51 | 338 | 4.0 | 8.0 | 0.00 | 0.59 | 0.59 | 83 | 1003.5 |
| 20260506214223 | 51 | 351 | 2.0 | 6.0 | 0.00 | 0.59 | 0.59 | 83 | 1003.5 |
| 20260506213220 | 51 | 0 | 2.0 | 4.0 | 0.00 | 0.59 | 0.59 | 84 | 1003.3 |
| 20260506212216 | 51 | 0 | 1.0 | 3.0 | 0.00 | 0.59 | 0.59 | 84 | 1003.3 |
| 20260506211314 | 51 | 0 | 2.0 | 3.0 | 0.00 | 0.59 | 0.59 | 83 | 1003.2 |
| 20260506210310 | 51 | 350 | 2.0 | 5.0 | 0.00 | 0.59 | 0.59 | 83 | 1003.3 |
| 20260506205307 | 51 | 329 | 1.0 | 2.0 | 0.00 | 0.59 | 0.59 | 83 | 1003.3 |
| 20260506204304 | 51 | 17 | 2.0 | 4.0 | 0.00 | 0.59 | 0.59 | 83 | 1003.2 |
| 20260506203300 | 51 | 0 | 2.0 | 4.0 | 0.00 | 0.59 | 0.59 | 82 | 1003.0 |
| 20260506202257 | 51 | 328 | 1.0 | 4.0 | 0.00 | 0.59 | 0.59 | 82 | 1003.2 |
| 20260506201253 | 51 | 6 | 2.0 | 5.0 | 0.00 | 0.59 | 0.59 | 81 | 1003.0 |
| 20260506200248 | 51 | 334 | 4.0 | 8.0 | 0.00 | 0.59 | 0.59 | 81 | 1002.8 |
| 20260506195245 | 51 | 6 | 3.0 | 8.0 | 0.00 | 0.59 | 0.59 | 83 | 1003.0 |
| 20260506194241 | 51 | 10 | 2.0 | 4.0 | 0.00 | 0.59 | 0.59 | 83 | 1002.9 |
| 20260506193237 | 51 | 328 | 2.0 | 7.0 | 0.00 | 0.59 | 0.59 | 83 | 1002.8 |
| 20260506192233 | 51 | 333 | 2.0 | 4.0 | 0.00 | 0.59 | 0.59 | 83 | 1002.7 |
| 20260506191301 | 51 | 328 | 2.0 | 4.0 | 0.00 | 0.59 | 0.59 | 82 | 1002.6 |
| 20260506190256 | 52 | 14 | 2.0 | 4.0 | 0.00 | 0.59 | 0.59 | 82 | 1002.4 |
| 20260506185253 | 53 | 354 | 3.0 | 6.0 | 0.00 | 0.59 | 0.59 | 81 | 1002.4 |
| 20260506184249 | 53 | 296 | 4.0 | 8.0 | 0.00 | 0.59 | 0.59 | 81 | 1002.2 |
| 20260506183244 | 54 | 346 | 4.0 | 10.0 | 0.00 | 0.59 | 0.59 | 81 | 1002.2 |
| 20260506182241 | 54 | 306 | 3.0 | 8.0 | 0.00 | 0.59 | 0.59 | 81 | 1002.0 |
| 20260506181237 | 54 | 330 | 2.0 | 4.0 | 0.00 | 0.59 | 0.59 | 81 | 1001.9 |
| 20260506180233 | 54 | 355 | 1.0 | 4.0 | 0.00 | 0.59 | 0.59 | 81 | 1001.8 |
| 20260506175229 | 55 | 314 | 4.0 | 8.0 | 0.00 | 0.59 | 0.59 | 78 | 1001.7 |
| 20260506174225 | 55 | 349 | 3.0 | 7.0 | 0.00 | 0.59 | 0.59 | 78 | 1001.5 |
| 20260506173222 | 55 | 16 | 3.0 | 6.0 | 0.00 | 0.59 | 0.59 | 77 | 1001.4 |
| 20260506172219 | 55 | 338 | 0.0 | 2.0 | 0.00 | 0.59 | 0.59 | 76 | 1001.4 |
| 20260506171215 | 55 | 61 | 2.0 | 4.0 | 0.00 | 0.59 | 0.59 | 76 | 1001.4 |
| 20260506170312 | 56 | 310 | 3.0 | 5.0 | 0.00 | 0.59 | 0.59 | 74 | 1001.3 |
| 20260506165309 | 56 | 339 | 3.0 | 7.0 | 0.00 | 0.59 | 0.59 | 74 | 1001.1 |
| 20260506164306 | 57 | 0 | 2.0 | 4.0 | 0.00 | 0.59 | 0.59 | 72 | 1001.1 |
| 20260506163303 | 57 | 345 | 4.0 | 8.0 | 0.00 | 0.59 | 0.59 | 72 | 1001.1 |